Yass, Australia
Current Conditions -  °F | °C
As of 2:30 AM on Thursday 23 Oct 2014 (Local Time) from YSCB Reporting Station
Clear Clear  
Wind Chill: 50°   Ceiling: Unl
Heat Index: 50°   Visibility: 6mi
Dew Point: 48°   Wind: 2mph
Humidity: 94%   Direction: 120°ESE
Pressure: 30.09"   Gusts: NA
Location:  34.84°S, 148.91°E
Report Text: YSCB 221530Z AUTO 12002KT 9999 // NCD 10/09 Q1019
Loading
Personal Weather Stations






























Interactive Weather Map
Tropical Storm Tracking
New forecast layout! Learn more

10-Day Weather Forecast

Advertisements
Track Severe Weather on mobile